logo
Search for airport 
image banner adimage banner adimage banner ad
image banner ad

SIHX - Fazenda Pau D'alho

Located in Nova Bandeirantes, Brazil

ICAO - SIHX, IATA -

Data provided by Airmate  

General information

Coordinates: S9°24'22" W58°11'28"
Elevation is 787 feet MSL.
Magnetic variation is -21° East
View others Airports in Ceará

Operational data

Special qualification required
Current time UTC:
Current local time:
Weather at : - ( 0 km )
METAR: PAWM 131535Z AUTO 13004KT 7SM BKN010 OVC095 M14/M17 A2997 RMK AO2 CIG 008V012 FZRANO
View NOTAMs / SUP AIP / TFR affecting this airport [VIEW]
Communications frequencies: [VIEW]

Runways:

RWY identifierQFULength (ft)Width (ft)SurfaceLDA (ft)
02328166GRAVEL
20328166GRAVEL

Airport contact information

Address: Nova Bandeirantes Brazil

Satellite view of SIHX